sensor_id;sensor_type;location;lat;lon;timestamp;temperature;humidity
68257;DHT22;55069;51.568;4.656;2022-10-31T00:02:04;11.99;93.02
68257;DHT22;55069;51.568;4.656;2022-10-31T00:04:29;11.95;93.10
68257;DHT22;55069;51.568;4.656;2022-10-31T00:06:55;12.00;93.10
68257;DHT22;55069;51.568;4.656;2022-10-31T00:09:21;12.00;93.16
68257;DHT22;55069;51.568;4.656;2022-10-31T00:11:46;12.02;93.26
68257;DHT22;55069;51.568;4.656;2022-10-31T00:14:12;12.03;93.28
68257;DHT22;55069;51.568;4.656;2022-10-31T00:16:37;11.99;93.28
68257;DHT22;55069;51.568;4.656;2022-10-31T00:19:05;11.92;93.20
68257;DHT22;55069;51.568;4.656;2022-10-31T00:21:31;11.89;93.20
68257;DHT22;55069;51.568;4.656;2022-10-31T00:23:58;11.81;93.14
68257;DHT22;55069;51.568;4.656;2022-10-31T00:26:24;11.75;93.17
68257;DHT22;55069;51.568;4.656;2022-10-31T00:28:49;11.74;93.26
68257;DHT22;55069;51.568;4.656;2022-10-31T00:31:16;11.71;93.15
68257;DHT22;55069;51.568;4.656;2022-10-31T00:33:43;11.64;93.15
68257;DHT22;55069;51.568;4.656;2022-10-31T00:36:13;11.59;93.31
68257;DHT22;55069;51.568;4.656;2022-10-31T00:38:40;11.57;93.31
68257;DHT22;55069;51.568;4.656;2022-10-31T00:41:06;11.52;93.35
68257;DHT22;55069;51.568;4.656;2022-10-31T00:43:32;11.52;93.30
68257;DHT22;55069;51.568;4.656;2022-10-31T00:45:57;11.48;93.26
68257;DHT22;55069;51.568;4.656;2022-10-31T00:48:23;11.42;93.15
68257;DHT22;55069;51.568;4.656;2022-10-31T00:50:49;11.31;93.10
68257;DHT22;55069;51.568;4.656;2022-10-31T00:53:14;11.27;93.10
68257;DHT22;55069;51.568;4.656;2022-10-31T00:55:40;11.17;93.11
68257;DHT22;55069;51.568;4.656;2022-10-31T00:58:06;11.11;93.14
68257;DHT22;55069;51.568;4.656;2022-10-31T01:00:32;11.09;93.23
68257;DHT22;55069;51.568;4.656;2022-10-31T01:02:57;11.06;93.30
68257;DHT22;55069;51.568;4.656;2022-10-31T01:05:23;11.00;93.40
68257;DHT22;55069;51.568;4.656;2022-10-31T01:07:49;10.96;93.45
68257;DHT22;55069;51.568;4.656;2022-10-31T01:10:14;10.95;93.43
68257;DHT22;55069;51.568;4.656;2022-10-31T01:12:44;10.93;93.39
68257;DHT22;55069;51.568;4.656;2022-10-31T01:15:12;10.96;93.47
68257;DHT22;55069;51.568;4.656;2022-10-31T01:17:38;10.92;93.42
68257;DHT22;55069;51.568;4.656;2022-10-31T01:20:06;10.86;93.29
68257;DHT22;55069;51.568;4.656;2022-10-31T01:22:32;10.80;93.25
68257;DHT22;55069;51.568;4.656;2022-10-31T01:24:59;10.79;93.29
68257;DHT22;55069;51.568;4.656;2022-10-31T01:27:25;10.75;93.44
68257;DHT22;55069;51.568;4.656;2022-10-31T01:29:51;10.66;93.37
68257;DHT22;55069;51.568;4.656;2022-10-31T01:32:16;10.66;93.46
68257;DHT22;55069;51.568;4.656;2022-10-31T01:34:44;10.61;93.57
68257;DHT22;55069;51.568;4.656;2022-10-31T01:37:11;10.61;93.58
68257;DHT22;55069;51.568;4.656;2022-10-31T01:39:37;10.58;93.57
68257;DHT22;55069;51.568;4.656;2022-10-31T01:42:03;10.56;93.68
68257;DHT22;55069;51.568;4.656;2022-10-31T01:46:57;10.55;93.85
68257;DHT22;55069;51.568;4.656;2022-10-31T01:49:46;10.58;93.96
68257;DHT22;55069;51.568;4.656;2022-10-31T01:52:33;10.59;94.09
68257;DHT22;55069;51.568;4.656;2022-10-31T01:57:33;10.52;94.22
68257;DHT22;55069;51.568;4.656;2022-10-31T02:00:04;10.51;94.35
68257;DHT22;55069;51.568;4.656;2022-10-31T02:02:38;10.55;94.35
68257;DHT22;55069;51.568;4.656;2022-10-31T02:05:07;10.51;94.41
68257;DHT22;55069;51.568;4.656;2022-10-31T02:10:29;10.49;94.48
68257;DHT22;55069;51.568;4.656;2022-10-31T02:12:58;10.48;94.36
68257;DHT22;55069;51.568;4.656;2022-10-31T02:15:25;10.44;94.33
68257;DHT22;55069;51.568;4.656;2022-10-31T02:17:51;10.45;94.38
68257;DHT22;55069;51.568;4.656;2022-10-31T02:20:19;10.44;94.44
68257;DHT22;55069;51.568;4.656;2022-10-31T02:25:20;10.37;94.55
68257;DHT22;55069;51.568;4.656;2022-10-31T02:33:48;10.37;94.71
68257;DHT22;55069;51.568;4.656;2022-10-31T02:39:24;10.27;94.73
68257;DHT22;55069;51.568;4.656;2022-10-31T02:42:15;10.30;94.82
68257;DHT22;55069;51.568;4.656;2022-10-31T02:44:50;10.34;94.92
68257;DHT22;55069;51.568;4.656;2022-10-31T02:47:19;10.32;94.94
68257;DHT22;55069;51.568;4.656;2022-10-31T02:49:57;10.28;94.95
68257;DHT22;55069;51.568;4.656;2022-10-31T02:54:51;10.28;95.10
68257;DHT22;55069;51.568;4.656;2022-10-31T02:57:25;10.25;95.03
68257;DHT22;55069;51.568;4.656;2022-10-31T02:59:55;10.22;94.91
68257;DHT22;55069;51.568;4.656;2022-10-31T03:05:23;10.11;94.72
68257;DHT22;55069;51.568;4.656;2022-10-31T03:15:51;10.01;94.60
68257;DHT22;55069;51.568;4.656;2022-10-31T03:18:27;10.00;94.57
68257;DHT22;55069;51.568;4.656;2022-10-31T03:21:01;9.97;94.44
68257;DHT22;55069;51.568;4.656;2022-10-31T03:23:30;9.96;94.53
68257;DHT22;55069;51.568;4.656;2022-10-31T03:25:59;9.96;94.45
68257;DHT22;55069;51.568;4.656;2022-10-31T03:28:30;9.91;94.40
68257;DHT22;55069;51.568;4.656;2022-10-31T03:30:56;9.86;94.40
68257;DHT22;55069;51.568;4.656;2022-10-31T03:33:26;9.87;94.32
68257;DHT22;55069;51.568;4.656;2022-10-31T03:35:55;9.84;94.27
68257;DHT22;55069;51.568;4.656;2022-10-31T03:38:23;9.83;94.24
68257;DHT22;55069;51.568;4.656;2022-10-31T03:40:50;9.80;94.38
68257;DHT22;55069;51.568;4.656;2022-10-31T03:43:22;9.75;94.43
68257;DHT22;55069;51.568;4.656;2022-10-31T03:45:50;9.79;94.45
68257;DHT22;55069;51.568;4.656;2022-10-31T03:48:18;9.75;94.46
68257;DHT22;55069;51.568;4.656;2022-10-31T03:53:26;9.70;94.20
68257;DHT22;55069;51.568;4.656;2022-10-31T03:56:02;9.69;94.21
68257;DHT22;55069;51.568;4.656;2022-10-31T03:58:37;9.69;94.18
68257;DHT22;55069;51.568;4.656;2022-10-31T04:01:06;9.66;93.99
68257;DHT22;55069;51.568;4.656;2022-10-31T04:03:37;9.63;93.95
68257;DHT22;55069;51.568;4.656;2022-10-31T04:06:08;9.57;93.91
68257;DHT22;55069;51.568;4.656;2022-10-31T04:08:45;9.55;93.73
68257;DHT22;55069;51.568;4.656;2022-10-31T04:11:18;9.50;93.68
68257;DHT22;55069;51.568;4.656;2022-10-31T04:13:51;9.49;93.71
68257;DHT22;55069;51.568;4.656;2022-10-31T04:16:21;9.56;93.65
68257;DHT22;55069;51.568;4.656;2022-10-31T04:18:49;9.46;93.62
68257;DHT22;55069;51.568;4.656;2022-10-31T04:21:15;9.42;93.63
68257;DHT22;55069;51.568;4.656;2022-10-31T04:23:42;9.42;93.53
68257;DHT22;55069;51.568;4.656;2022-10-31T04:26:15;9.35;93.50
68257;DHT22;55069;51.568;4.656;2022-10-31T04:28:42;9.35;93.48
68257;DHT22;55069;51.568;4.656;2022-10-31T04:31:10;9.35;93.58
68257;DHT22;55069;51.568;4.656;2022-10-31T04:33:36;9.29;93.58
68257;DHT22;55069;51.568;4.656;2022-10-31T04:36:02;9.29;93.69
68257;DHT22;55069;51.568;4.656;2022-10-31T04:38:28;9.31;93.73
68257;DHT22;55069;51.568;4.656;2022-10-31T04:40:54;9.27;93.75
68257;DHT22;55069;51.568;4.656;2022-10-31T04:43:40;9.25;93.88
68257;DHT22;55069;51.568;4.656;2022-10-31T04:46:05;9.31;93.89
68257;DHT22;55069;51.568;4.656;2022-10-31T04:48:31;9.28;94.04
68257;DHT22;55069;51.568;4.656;2022-10-31T04:51:00;9.35;94.21
68257;DHT22;55069;51.568;4.656;2022-10-31T04:53:27;9.36;94.31
68257;DHT22;55069;51.568;4.656;2022-10-31T04:56:11;9.36;93.93
68257;DHT22;55069;51.568;4.656;2022-10-31T04:58:41;9.36;93.87
68257;DHT22;55069;51.568;4.656;2022-10-31T05:01:08;9.36;93.86
68257;DHT22;55069;51.568;4.656;2022-10-31T05:03:34;9.42;93.83
68257;DHT22;55069;51.568;4.656;2022-10-31T05:05:59;9.35;93.71
68257;DHT22;55069;51.568;4.656;2022-10-31T05:08:25;9.35;93.85
68257;DHT22;55069;51.568;4.656;2022-10-31T05:10:51;9.35;93.84
68257;DHT22;55069;51.568;4.656;2022-10-31T05:13:17;9.39;93.79
68257;DHT22;55069;51.568;4.656;2022-10-31T05:15:43;9.36;93.77
68257;DHT22;55069;51.568;4.656;2022-10-31T05:18:17;9.32;93.74
68257;DHT22;55069;51.568;4.656;2022-10-31T05:21:03;9.32;93.77
68257;DHT22;55069;51.568;4.656;2022-10-31T05:23:33;9.28;93.75
68257;DHT22;55069;51.568;4.656;2022-10-31T05:25:59;9.29;93.78
68257;DHT22;55069;51.568;4.656;2022-10-31T05:28:25;9.31;93.81
68257;DHT22;55069;51.568;4.656;2022-10-31T05:30:50;9.32;93.87
68257;DHT22;55069;51.568;4.656;2022-10-31T05:33:16;9.35;93.97
68257;DHT22;55069;51.568;4.656;2022-10-31T05:36:05;9.34;94.07
68257;DHT22;55069;51.568;4.656;2022-10-31T05:39:09;9.32;94.30
68257;DHT22;55069;51.568;4.656;2022-10-31T05:41:39;9.40;94.30
68257;DHT22;55069;51.568;4.656;2022-10-31T05:44:20;9.36;94.29
68257;DHT22;55069;51.568;4.656;2022-10-31T05:47:06;9.34;94.49
68257;DHT22;55069;51.568;4.656;2022-10-31T05:49:50;9.29;94.41
68257;DHT22;55069;51.568;4.656;2022-10-31T05:52:22;9.29;94.45
68257;DHT22;55069;51.568;4.656;2022-10-31T05:54:59;9.29;94.45
68257;DHT22;55069;51.568;4.656;2022-10-31T05:57:24;9.29;94.55
68257;DHT22;55069;51.568;4.656;2022-10-31T05:59:52;9.28;94.59
68257;DHT22;55069;51.568;4.656;2022-10-31T06:02:21;9.28;94.52
68257;DHT22;55069;51.568;4.656;2022-10-31T06:05:13;9.28;94.54
68257;DHT22;55069;51.568;4.656;2022-10-31T06:07:40;9.21;94.50
68257;DHT22;55069;51.568;4.656;2022-10-31T06:10:07;9.18;94.52
68257;DHT22;55069;51.568;4.656;2022-10-31T06:12:35;9.22;94.52
68257;DHT22;55069;51.568;4.656;2022-10-31T06:15:25;9.17;94.47
68257;DHT22;55069;51.568;4.656;2022-10-31T06:18:03;9.18;94.41
68257;DHT22;55069;51.568;4.656;2022-10-31T06:20:33;9.18;94.47
68257;DHT22;55069;51.568;4.656;2022-10-31T06:23:03;9.18;94.46
68257;DHT22;55069;51.568;4.656;2022-10-31T06:25:31;9.21;94.60
68257;DHT22;55069;51.568;4.656;2022-10-31T06:27:57;9.22;94.66
68257;DHT22;55069;51.568;4.656;2022-10-31T06:30:29;9.24;94.68
68257;DHT22;55069;51.568;4.656;2022-10-31T06:32:54;9.27;94.67
68257;DHT22;55069;51.568;4.656;2022-10-31T06:35:20;9.29;94.58
68257;DHT22;55069;51.568;4.656;2022-10-31T06:37:53;9.31;94.56
68257;DHT22;55069;51.568;4.656;2022-10-31T06:40:35;9.32;94.48
68257;DHT22;55069;51.568;4.656;2022-10-31T06:43:21;9.38;94.44
68257;DHT22;55069;51.568;4.656;2022-10-31T06:45:48;9.40;94.42
68257;DHT22;55069;51.568;4.656;2022-10-31T06:48:25;9.39;94.49
68257;DHT22;55069;51.568;4.656;2022-10-31T06:51:17;9.39;94.60
68257;DHT22;55069;51.568;4.656;2022-10-31T06:53:43;9.40;94.61
68257;DHT22;55069;51.568;4.656;2022-10-31T06:56:10;9.43;94.64
68257;DHT22;55069;51.568;4.656;2022-10-31T06:58:56;9.46;94.64
68257;DHT22;55069;51.568;4.656;2022-10-31T07:01:41;9.52;94.89
68257;DHT22;55069;51.568;4.656;2022-10-31T07:04:09;9.56;94.97
68257;DHT22;55069;51.568;4.656;2022-10-31T07:06:35;9.63;95.20
68257;DHT22;55069;51.568;4.656;2022-10-31T07:09:01;9.65;95.23
68257;DHT22;55069;51.568;4.656;2022-10-31T07:11:27;9.69;95.28
68257;DHT22;55069;51.568;4.656;2022-10-31T07:13:54;9.79;95.36
68257;DHT22;55069;51.568;4.656;2022-10-31T07:16:20;9.84;95.41
68257;DHT22;55069;51.568;4.656;2022-10-31T07:18:45;9.90;95.46
68257;DHT22;55069;51.568;4.656;2022-10-31T07:21:11;10.00;95.64
68257;DHT22;55069;51.568;4.656;2022-10-31T07:23:37;10.05;95.42
68257;DHT22;55069;51.568;4.656;2022-10-31T07:26:23;10.14;95.38
68257;DHT22;55069;51.568;4.656;2022-10-31T07:28:49;10.17;95.35
68257;DHT22;55069;51.568;4.656;2022-10-31T07:31:18;10.25;95.45
68257;DHT22;55069;51.568;4.656;2022-10-31T07:33:44;10.34;95.46
68257;DHT22;55069;51.568;4.656;2022-10-31T07:36:38;10.42;95.47
68257;DHT22;55069;51.568;4.656;2022-10-31T07:39:04;10.53;95.49
68257;DHT22;55069;51.568;4.656;2022-10-31T07:41:32;10.65;95.56
68257;DHT22;55069;51.568;4.656;2022-10-31T07:43:58;10.71;95.50
68257;DHT22;55069;51.568;4.656;2022-10-31T07:46:42;10.77;95.62
68257;DHT22;55069;51.568;4.656;2022-10-31T07:49:26;10.83;95.64
68257;DHT22;55069;51.568;4.656;2022-10-31T07:52:21;10.89;95.69
68257;DHT22;55069;51.568;4.656;2022-10-31T07:55:18;10.95;95.69
68257;DHT22;55069;51.568;4.656;2022-10-31T07:57:55;10.96;95.68
68257;DHT22;55069;51.568;4.656;2022-10-31T08:00:21;11.07;95.73
68257;DHT22;55069;51.568;4.656;2022-10-31T08:02:58;11.07;95.64
68257;DHT22;55069;51.568;4.656;2022-10-31T08:05:42;11.09;95.58
68257;DHT22;55069;51.568;4.656;2022-10-31T08:08:25;11.16;95.66
68257;DHT22;55069;51.568;4.656;2022-10-31T08:10:54;11.17;95.74
68257;DHT22;55069;51.568;4.656;2022-10-31T08:13:20;11.24;95.74
68257;DHT22;55069;51.568;4.656;2022-10-31T08:15:49;11.24;95.72
68257;DHT22;55069;51.568;4.656;2022-10-31T08:18:21;11.31;95.76
68257;DHT22;55069;51.568;4.656;2022-10-31T08:20:49;11.35;95.81
68257;DHT22;55069;51.568;4.656;2022-10-31T08:23:15;11.39;95.80
68257;DHT22;55069;51.568;4.656;2022-10-31T08:25:42;11.51;95.82
68257;DHT22;55069;51.568;4.656;2022-10-31T08:28:10;11.61;95.84
68257;DHT22;55069;51.568;4.656;2022-10-31T08:30:38;11.65;95.77
68257;DHT22;55069;51.568;4.656;2022-10-31T08:33:23;11.75;95.85
68257;DHT22;55069;51.568;4.656;2022-10-31T08:36:15;11.93;95.89
68257;DHT22;55069;51.568;4.656;2022-10-31T08:39:19;12.06;95.84
68257;DHT22;55069;51.568;4.656;2022-10-31T08:41:44;12.16;95.76
68257;DHT22;55069;51.568;4.656;2022-10-31T08:44:12;12.19;95.54
68257;DHT22;55069;51.568;4.656;2022-10-31T08:46:37;12.22;95.27
68257;DHT22;55069;51.568;4.656;2022-10-31T08:49:03;12.32;95.30
68257;DHT22;55069;51.568;4.656;2022-10-31T08:51:29;12.40;95.32
68257;DHT22;55069;51.568;4.656;2022-10-31T08:53:55;12.48;95.28
68257;DHT22;55069;51.568;4.656;2022-10-31T08:56:55;12.53;94.94
68257;DHT22;55069;51.568;4.656;2022-10-31T08:59:36;12.65;95.03
68257;DHT22;55069;51.568;4.656;2022-10-31T09:02:20;12.72;94.77
68257;DHT22;55069;51.568;4.656;2022-10-31T09:04:48;12.77;94.63
68257;DHT22;55069;51.568;4.656;2022-10-31T09:07:13;12.81;94.52
68257;DHT22;55069;51.568;4.656;2022-10-31T09:09:39;12.88;94.51
68257;DHT22;55069;51.568;4.656;2022-10-31T09:12:05;13.02;94.54
68257;DHT22;55069;51.568;4.656;2022-10-31T09:14:49;13.06;94.45
68257;DHT22;55069;51.568;4.656;2022-10-31T09:17:23;13.13;93.92
68257;DHT22;55069;51.568;4.656;2022-10-31T09:20:12;13.23;94.20
68257;DHT22;55069;51.568;4.656;2022-10-31T09:22:37;13.33;93.88
68257;DHT22;55069;51.568;4.656;2022-10-31T09:25:03;13.42;93.95
68257;DHT22;55069;51.568;4.656;2022-10-31T09:27:29;13.60;93.80
68257;DHT22;55069;51.568;4.656;2022-10-31T09:29:56;13.68;93.23
68257;DHT22;55069;51.568;4.656;2022-10-31T09:32:22;13.82;92.95
68257;DHT22;55069;51.568;4.656;2022-10-31T09:34:47;13.91;92.75
68257;DHT22;55069;51.568;4.656;2022-10-31T09:37:17;13.98;92.36
68257;DHT22;55069;51.568;4.656;2022-10-31T09:39:44;13.92;92.10
68257;DHT22;55069;51.568;4.656;2022-10-31T09:50:44;14.14;92.54
68257;DHT22;55069;51.568;4.656;2022-10-31T09:55:57;14.23;92.52
68257;DHT22;55069;51.568;4.656;2022-10-31T09:58:29;14.28;92.44
68257;DHT22;55069;51.568;4.656;2022-10-31T10:00:59;14.30;92.30
68257;DHT22;55069;51.568;4.656;2022-10-31T10:03:45;14.30;92.37
68257;DHT22;55069;51.568;4.656;2022-10-31T10:06:35;14.36;92.34
68257;DHT22;55069;51.568;4.656;2022-10-31T10:09:42;14.50;92.33
68257;DHT22;55069;51.568;4.656;2022-10-31T10:15:37;14.64;92.11
68257;DHT22;55069;51.568;4.656;2022-10-31T10:21:03;14.79;91.97
68257;DHT22;55069;51.568;4.656;2022-10-31T10:26:24;15.05;91.51
68257;DHT22;55069;51.568;4.656;2022-10-31T10:31:58;15.18;90.56
68257;DHT22;55069;51.568;4.656;2022-10-31T10:34:39;15.22;90.70
68257;DHT22;55069;51.568;4.656;2022-10-31T10:37:27;15.15;91.08
68257;DHT22;55069;51.568;4.656;2022-10-31T10:40:22;15.12;90.92
68257;DHT22;55069;51.568;4.656;2022-10-31T10:46:24;15.14;91.24
68257;DHT22;55069;51.568;4.656;2022-10-31T10:49:18;15.05;91.04
68257;DHT22;55069;51.568;4.656;2022-10-31T11:02:54;15.05;92.28
68257;DHT22;55069;51.568;4.656;2022-10-31T11:08:10;15.15;92.26
68257;DHT22;55069;51.568;4.656;2022-10-31T11:10:36;15.14;92.10
68257;DHT22;55069;51.568;4.656;2022-10-31T11:15:34;15.35;92.21
68257;DHT22;55069;51.568;4.656;2022-10-31T11:18:01;15.50;92.00
68257;DHT22;55069;51.568;4.656;2022-10-31T11:20:36;15.66;91.77
68257;DHT22;55069;51.568;4.656;2022-10-31T11:23:17;15.80;91.79
68257;DHT22;55069;51.568;4.656;2022-10-31T11:26:00;15.77;90.32
68257;DHT22;55069;51.568;4.656;2022-10-31T11:28:31;15.91;90.66
68257;DHT22;55069;51.568;4.656;2022-10-31T11:31:08;15.96;90.47
68257;DHT22;55069;51.568;4.656;2022-10-31T11:33:49;16.03;90.51
68257;DHT22;55069;51.568;4.656;2022-10-31T11:36:22;16.04;89.95
68257;DHT22;55069;51.568;4.656;2022-10-31T11:38:48;16.13;89.61
68257;DHT22;55069;51.568;4.656;2022-10-31T11:41:33;16.13;89.68
68257;DHT22;55069;51.568;4.656;2022-10-31T11:47:01;16.44;89.64
68257;DHT22;55069;51.568;4.656;2022-10-31T11:49:34;16.61;88.93
68257;DHT22;55069;51.568;4.656;2022-10-31T11:52:06;16.79;89.34
68257;DHT22;55069;51.568;4.656;2022-10-31T11:57:24;16.87;86.79
68257;DHT22;55069;51.568;4.656;2022-10-31T11:59:56;16.86;86.65
68257;DHT22;55069;51.568;4.656;2022-10-31T12:02:22;16.89;87.29
68257;DHT22;55069;51.568;4.656;2022-10-31T12:07:23;16.82;87.14
68257;DHT22;55069;51.568;4.656;2022-10-31T12:09:49;16.75;86.53
68257;DHT22;55069;51.568;4.656;2022-10-31T12:15:27;16.51;87.81
68257;DHT22;55069;51.568;4.656;2022-10-31T12:26:26;16.32;88.25
68257;DHT22;55069;51.568;4.656;2022-10-31T12:34:42;16.14;88.63
68257;DHT22;55069;51.568;4.656;2022-10-31T12:43:26;16.01;89.34
68257;DHT22;55069;51.568;4.656;2022-10-31T12:45:59;15.98;89.48
68257;DHT22;55069;51.568;4.656;2022-10-31T12:53:45;16.04;89.68
68257;DHT22;55069;51.568;4.656;2022-10-31T13:00:19;16.14;89.63
68257;DHT22;55069;51.568;4.656;2022-10-31T13:05:11;16.22;89.45
68257;DHT22;55069;51.568;4.656;2022-10-31T13:13:23;16.69;88.73
68257;DHT22;55069;51.568;4.656;2022-10-31T13:15:57;16.77;88.08
68257;DHT22;55069;51.568;4.656;2022-10-31T13:18:30;16.83;88.00
68257;DHT22;55069;51.568;4.656;2022-10-31T13:20:59;16.83;87.18
68257;DHT22;55069;51.568;4.656;2022-10-31T13:23:30;16.90;87.13
68257;DHT22;55069;51.568;4.656;2022-10-31T13:25:59;16.91;87.08
68257;DHT22;55069;51.568;4.656;2022-10-31T13:31:40;17.03;86.90
68257;DHT22;55069;51.568;4.656;2022-10-31T13:34:26;17.03;86.42
68257;DHT22;55069;51.568;4.656;2022-10-31T13:45:21;16.90;87.33
68257;DHT22;55069;51.568;4.656;2022-10-31T13:48:18;16.87;87.36
68257;DHT22;55069;51.568;4.656;2022-10-31T13:51:02;16.86;87.37
68257;DHT22;55069;51.568;4.656;2022-10-31T13:58:34;16.73;87.87
68257;DHT22;55069;51.568;4.656;2022-10-31T14:01:16;16.72;88.16
68257;DHT22;55069;51.568;4.656;2022-10-31T14:03:45;16.72;87.95
68257;DHT22;55069;51.568;4.656;2022-10-31T14:06:12;16.75;88.07
68257;DHT22;55069;51.568;4.656;2022-10-31T14:08:46;16.70;88.17
68257;DHT22;55069;51.568;4.656;2022-10-31T14:11:23;16.73;88.33
68257;DHT22;55069;51.568;4.656;2022-10-31T14:13:49;16.72;88.30
68257;DHT22;55069;51.568;4.656;2022-10-31T14:21:26;16.83;88.29
68257;DHT22;55069;51.568;4.656;2022-10-31T14:23:54;16.83;88.06
68257;DHT22;55069;51.568;4.656;2022-10-31T14:28:50;16.91;87.57
68257;DHT22;55069;51.568;4.656;2022-10-31T14:31:44;16.93;87.51
68257;DHT22;55069;51.568;4.656;2022-10-31T14:45:43;17.42;85.66
68257;DHT22;55069;51.568;4.656;2022-10-31T14:50:51;17.14;85.75
68257;DHT22;55069;51.568;4.656;2022-10-31T14:53:24;17.02;85.90
68257;DHT22;55069;51.568;4.656;2022-10-31T14:55:55;16.89;86.42
68257;DHT22;55069;51.568;4.656;2022-10-31T14:58:35;16.73;86.95
68257;DHT22;55069;51.568;4.656;2022-10-31T15:01:02;16.69;87.13
68257;DHT22;55069;51.568;4.656;2022-10-31T15:03:38;16.68;86.73
68257;DHT22;55069;51.568;4.656;2022-10-31T15:06:12;16.61;87.50
68257;DHT22;55069;51.568;4.656;2022-10-31T15:08:43;16.59;87.64
68257;DHT22;55069;51.568;4.656;2022-10-31T15:11:11;16.52;87.79
68257;DHT22;55069;51.568;4.656;2022-10-31T15:16:15;16.36;88.04
68257;DHT22;55069;51.568;4.656;2022-10-31T15:18:51;16.28;88.39
68257;DHT22;55069;51.568;4.656;2022-10-31T15:21:19;16.15;88.65
68257;DHT22;55069;51.568;4.656;2022-10-31T15:23:46;16.07;88.80
68257;DHT22;55069;51.568;4.656;2022-10-31T15:26:20;15.96;89.23
68257;DHT22;55069;51.568;4.656;2022-10-31T15:28:56;15.89;89.47
68257;DHT22;55069;51.568;4.656;2022-10-31T15:31:23;15.80;89.60
68257;DHT22;55069;51.568;4.656;2022-10-31T15:33:49;15.77;89.93
68257;DHT22;55069;51.568;4.656;2022-10-31T15:36:24;15.70;89.93
68257;DHT22;55069;51.568;4.656;2022-10-31T15:38:49;15.71;89.93
68257;DHT22;55069;51.568;4.656;2022-10-31T15:41:29;15.70;89.85
68257;DHT22;55069;51.568;4.656;2022-10-31T15:44:01;15.69;89.85
68257;DHT22;55069;51.568;4.656;2022-10-31T15:46:29;15.60;89.81
68257;DHT22;55069;51.568;4.656;2022-10-31T15:48:55;15.57;90.02
68257;DHT22;55069;51.568;4.656;2022-10-31T15:51:30;15.53;89.86
68257;DHT22;55069;51.568;4.656;2022-10-31T15:53:56;15.50;90.03
68257;DHT22;55069;51.568;4.656;2022-10-31T15:56:27;15.40;90.09
68257;DHT22;55069;51.568;4.656;2022-10-31T15:58:54;15.39;90.16
68257;DHT22;55069;51.568;4.656;2022-10-31T16:01:30;15.39;90.14
68257;DHT22;55069;51.568;4.656;2022-10-31T16:04:03;15.38;89.92
68257;DHT22;55069;51.568;4.656;2022-10-31T16:06:29;15.32;89.94
68257;DHT22;55069;51.568;4.656;2022-10-31T16:08:55;15.25;89.86
68257;DHT22;55069;51.568;4.656;2022-10-31T16:11:24;15.21;89.92
68257;DHT22;55069;51.568;4.656;2022-10-31T16:16:23;14.95;90.49
68257;DHT22;55069;51.568;4.656;2022-10-31T16:18:50;14.87;90.79
68257;DHT22;55069;51.568;4.656;2022-10-31T16:21:29;14.73;90.96
68257;DHT22;55069;51.568;4.656;2022-10-31T16:24:04;14.67;91.28
68257;DHT22;55069;51.568;4.656;2022-10-31T16:26:31;14.59;91.41
68257;DHT22;55069;51.568;4.656;2022-10-31T16:28:58;14.52;91.48
68257;DHT22;55069;51.568;4.656;2022-10-31T16:31:37;14.44;91.61
68257;DHT22;55069;51.568;4.656;2022-10-31T16:34:23;14.39;91.79
68257;DHT22;55069;51.568;4.656;2022-10-31T16:36:49;14.40;91.88
68257;DHT22;55069;51.568;4.656;2022-10-31T16:39:15;14.33;92.13
68257;DHT22;55069;51.568;4.656;2022-10-31T16:41:48;14.26;92.24
68257;DHT22;55069;51.568;4.656;2022-10-31T16:44:19;14.18;92.14
68257;DHT22;55069;51.568;4.656;2022-10-31T16:46:46;14.12;92.26
68257;DHT22;55069;51.568;4.656;2022-10-31T16:49:12;14.08;92.30
68257;DHT22;55069;51.568;4.656;2022-10-31T16:51:38;14.02;92.36
68257;DHT22;55069;51.568;4.656;2022-10-31T16:54:03;13.97;92.42
68257;DHT22;55069;51.568;4.656;2022-10-31T16:56:30;13.98;92.50
68257;DHT22;55069;51.568;4.656;2022-10-31T16:58:58;13.98;92.60
68257;DHT22;55069;51.568;4.656;2022-10-31T17:01:24;13.95;92.54
68257;DHT22;55069;51.568;4.656;2022-10-31T17:03:50;13.91;92.61
68257;DHT22;55069;51.568;4.656;2022-10-31T17:06:15;13.85;92.65
68257;DHT22;55069;51.568;4.656;2022-10-31T17:08:41;13.81;92.77
68257;DHT22;55069;51.568;4.656;2022-10-31T17:11:14;13.82;92.80
68257;DHT22;55069;51.568;4.656;2022-10-31T17:13:40;13.78;92.65
68257;DHT22;55069;51.568;4.656;2022-10-31T17:16:06;13.70;92.70
68257;DHT22;55069;51.568;4.656;2022-10-31T17:18:32;13.68;92.78
68257;DHT22;55069;51.568;4.656;2022-10-31T17:20:59;13.60;92.95
68257;DHT22;55069;51.568;4.656;2022-10-31T17:23:26;13.56;93.00
68257;DHT22;55069;51.568;4.656;2022-10-31T17:25:53;13.54;93.20
68257;DHT22;55069;51.568;4.656;2022-10-31T17:28:18;13.53;93.19
68257;DHT22;55069;51.568;4.656;2022-10-31T17:30:44;13.44;93.21
68257;DHT22;55069;51.568;4.656;2022-10-31T17:33:12;13.42;93.34
68257;DHT22;55069;51.568;4.656;2022-10-31T17:35:38;13.43;93.57
68257;DHT22;55069;51.568;4.656;2022-10-31T17:38:04;13.44;93.66
68257;DHT22;55069;51.568;4.656;2022-10-31T17:40:30;13.42;93.75
68257;DHT22;55069;51.568;4.656;2022-10-31T17:42:56;13.44;93.85
68257;DHT22;55069;51.568;4.656;2022-10-31T17:45:24;13.39;93.89
68257;DHT22;55069;51.568;4.656;2022-10-31T17:47:51;13.40;93.88
68257;DHT22;55069;51.568;4.656;2022-10-31T17:50:22;13.39;93.86
68257;DHT22;55069;51.568;4.656;2022-10-31T17:52:48;13.44;93.94
68257;DHT22;55069;51.568;4.656;2022-10-31T17:55:15;13.42;93.94
68257;DHT22;55069;51.568;4.656;2022-10-31T17:57:40;13.42;93.82
68257;DHT22;55069;51.568;4.656;2022-10-31T18:00:09;13.40;93.88
68257;DHT22;55069;51.568;4.656;2022-10-31T18:02:37;13.40;93.92
68257;DHT22;55069;51.568;4.656;2022-10-31T18:05:03;13.44;93.84
68257;DHT22;55069;51.568;4.656;2022-10-31T18:07:30;13.43;93.73
68257;DHT22;55069;51.568;4.656;2022-10-31T18:09:56;13.46;93.77
68257;DHT22;55069;51.568;4.656;2022-10-31T18:12:22;13.39;93.84
68257;DHT22;55069;51.568;4.656;2022-10-31T18:14:47;13.54;93.72
68257;DHT22;55069;51.568;4.656;2022-10-31T18:17:13;13.51;93.57
68257;DHT22;55069;51.568;4.656;2022-10-31T18:19:39;13.48;93.65
68257;DHT22;55069;51.568;4.656;2022-10-31T18:22:05;13.51;93.68
68257;DHT22;55069;51.568;4.656;2022-10-31T18:24:30;13.51;93.53
68257;DHT22;55069;51.568;4.656;2022-10-31T18:26:56;13.48;93.71
68257;DHT22;55069;51.568;4.656;2022-10-31T18:29:22;13.44;93.67
68257;DHT22;55069;51.568;4.656;2022-10-31T18:31:48;13.47;93.74
68257;DHT22;55069;51.568;4.656;2022-10-31T18:34:16;13.51;93.59
68257;DHT22;55069;51.568;4.656;2022-10-31T18:36:42;13.53;93.46
68257;DHT22;55069;51.568;4.656;2022-10-31T18:39:08;13.51;93.43
68257;DHT22;55069;51.568;4.656;2022-10-31T18:41:33;13.51;93.41
68257;DHT22;55069;51.568;4.656;2022-10-31T18:44:00;13.50;93.46
68257;DHT22;55069;51.568;4.656;2022-10-31T18:46:26;13.57;93.36
68257;DHT22;55069;51.568;4.656;2022-10-31T18:48:52;13.51;93.12
68257;DHT22;55069;51.568;4.656;2022-10-31T18:51:17;13.64;92.86